sensor_id;sensor_type;location;lat;lon;timestamp;pressure;altitude;pressure_sealevel;temperature;humidity
54122;BME280;40029;58.708;50.190;2023-03-13T00:00:29;98222.00;;;7.45;64.54
54122;BME280;40029;58.708;50.190;2023-03-13T00:03:00;98214.00;;;7.33;64.77
54122;BME280;40029;58.708;50.190;2023-03-13T00:05:34;98224.97;;;7.38;63.46
54122;BME280;40029;58.708;50.190;2023-03-13T00:08:05;98228.41;;;7.21;65.12
54122;BME280;40029;58.708;50.190;2023-03-13T00:10:38;98212.16;;;7.35;64.47
54122;BME280;40029;58.708;50.190;2023-03-13T00:13:09;98214.00;;;7.33;64.71
54122;BME280;40029;58.708;50.190;2023-03-13T00:15:40;98209.75;;;7.14;64.65
54122;BME280;40029;58.708;50.190;2023-03-13T00:18:11;98195.56;;;7.39;63.61
54122;BME280;40029;58.708;50.190;2023-03-13T00:20:42;98170.22;;;7.11;64.52
54122;BME280;40029;58.708;50.190;2023-03-13T00:23:17;98208.00;;;7.32;64.45
54122;BME280;40029;58.708;50.190;2023-03-13T00:25:58;98202.22;;;7.10;64.52
54122;BME280;40029;58.708;50.190;2023-03-13T00:28:32;98164.56;;;7.20;63.99
54122;BME280;40029;58.708;50.190;2023-03-13T00:31:09;98153.59;;;7.15;63.85
54122;BME280;40029;58.708;50.190;2023-03-13T00:33:42;98160.09;;;7.06;63.77
54122;BME280;40029;58.708;50.190;2023-03-13T00:36:24;98151.25;;;7.10;63.02
54122;BME280;40029;58.708;50.190;2023-03-13T00:38:57;98179.63;;;7.46;62.72
54122;BME280;40029;58.708;50.190;2023-03-13T00:41:30;98174.59;;;7.26;63.40
54122;BME280;40029;58.708;50.190;2023-03-13T00:44:01;98179.72;;;7.28;63.50
54122;BME280;40029;58.708;50.190;2023-03-13T00:46:35;98163.66;;;7.21;62.62
54122;BME280;40029;58.708;50.190;2023-03-13T00:49:06;98193.59;;;7.44;62.42
54122;BME280;40029;58.708;50.190;2023-03-13T00:51:37;98185.50;;;7.33;62.01
54122;BME280;40029;58.708;50.190;2023-03-13T00:54:09;98180.84;;;7.22;63.07
54122;BME280;40029;58.708;50.190;2023-03-13T00:56:58;98179.03;;;7.41;62.86
54122;BME280;40029;58.708;50.190;2023-03-13T00:59:29;98199.75;;;7.07;63.85
54122;BME280;40029;58.708;50.190;2023-03-13T01:02:02;98179.88;;;7.07;63.96
54122;BME280;40029;58.708;50.190;2023-03-13T01:04:33;98169.00;;;7.18;63.42
54122;BME280;40029;58.708;50.190;2023-03-13T01:07:04;98186.72;;;7.43;63.31
54122;BME280;40029;58.708;50.190;2023-03-13T01:09:35;98168.59;;;7.08;63.56
54122;BME280;40029;58.708;50.190;2023-03-13T01:12:25;98174.38;;;7.13;62.79
54122;BME280;40029;58.708;50.190;2023-03-13T01:14:56;98167.00;;;6.88;64.37
54122;BME280;40029;58.708;50.190;2023-03-13T01:17:27;98157.47;;;6.89;65.24
54122;BME280;40029;58.708;50.190;2023-03-13T01:19:58;98165.94;;;7.10;64.92
54122;BME280;40029;58.708;50.190;2023-03-13T01:22:29;98181.06;;;7.00;64.02
54122;BME280;40029;58.708;50.190;2023-03-13T01:25:01;98182.16;;;7.13;64.25
54122;BME280;40029;58.708;50.190;2023-03-13T01:27:34;98218.63;;;7.09;64.92
54122;BME280;40029;58.708;50.190;2023-03-13T01:30:24;98169.97;;;6.98;63.51
54122;BME280;40029;58.708;50.190;2023-03-13T01:32:55;98177.38;;;7.06;63.21
54122;BME280;40029;58.708;50.190;2023-03-13T01:35:26;98196.03;;;7.12;64.13
54122;BME280;40029;58.708;50.190;2023-03-13T01:37:57;98209.81;;;7.13;63.58
54122;BME280;40029;58.708;50.190;2023-03-13T01:40:28;98207.69;;;7.21;64.32
54122;BME280;40029;58.708;50.190;2023-03-13T01:42:59;98154.59;;;7.12;63.55
54122;BME280;40029;58.708;50.190;2023-03-13T01:51:41;98209.66;;;7.16;63.83
54122;BME280;40029;58.708;50.190;2023-03-13T01:54:55;98199.06;;;7.38;63.72
54122;BME280;40029;58.708;50.190;2023-03-13T01:57:40;98153.38;;;7.19;63.29
54122;BME280;40029;58.708;50.190;2023-03-13T02:00:14;98143.81;;;6.68;63.57
54122;BME280;40029;58.708;50.190;2023-03-13T02:02:50;98200.50;;;7.09;64.19
54122;BME280;40029;58.708;50.190;2023-03-13T02:05:41;98181.63;;;7.07;64.48
54122;BME280;40029;58.708;50.190;2023-03-13T02:11:23;98201.34;;;7.09;62.71
54122;BME280;40029;58.708;50.190;2023-03-13T02:13:58;98126.00;;;6.79;63.94
54122;BME280;40029;58.708;50.190;2023-03-13T02:16:32;98190.31;;;7.23;63.26
54122;BME280;40029;58.708;50.190;2023-03-13T02:19:16;98150.56;;;7.07;63.04
54122;BME280;40029;58.708;50.190;2023-03-13T02:21:54;98180.69;;;7.42;62.27
54122;BME280;40029;58.708;50.190;2023-03-13T02:27:02;98157.06;;;6.79;63.82
54122;BME280;40029;58.708;50.190;2023-03-13T02:29:34;98177.97;;;7.28;63.58
54122;BME280;40029;58.708;50.190;2023-03-13T02:32:06;98179.88;;;7.24;62.97
54122;BME280;40029;58.708;50.190;2023-03-13T02:34:38;98131.38;;;7.11;62.04
54122;BME280;40029;58.708;50.190;2023-03-13T02:37:12;98174.84;;;7.21;62.41
54122;BME280;40029;58.708;50.190;2023-03-13T02:39:47;98173.25;;;7.36;61.60
54122;BME280;40029;58.708;50.190;2023-03-13T02:42:41;98140.19;;;6.89;62.34
54122;BME280;40029;58.708;50.190;2023-03-13T02:45:13;98172.47;;;7.17;62.02
54122;BME280;40029;58.708;50.190;2023-03-13T02:47:45;98157.63;;;7.03;62.79
54122;BME280;40029;58.708;50.190;2023-03-13T02:50:16;98166.47;;;7.16;62.72
54122;BME280;40029;58.708;50.190;2023-03-13T02:52:51;98140.88;;;7.10;62.25
54122;BME280;40029;58.708;50.190;2023-03-13T02:55:28;98179.34;;;7.18;62.88
54122;BME280;40029;58.708;50.190;2023-03-13T02:57:59;98153.38;;;7.02;62.78
54122;BME280;40029;58.708;50.190;2023-03-13T03:00:33;98178.34;;;7.38;61.83
54122;BME280;40029;58.708;50.190;2023-03-13T03:03:05;98140.03;;;7.27;61.62
54122;BME280;40029;58.708;50.190;2023-03-13T03:05:36;98134.25;;;7.05;60.99
54122;BME280;40029;58.708;50.190;2023-03-13T03:08:07;98166.69;;;7.29;61.87
54122;BME280;40029;58.708;50.190;2023-03-13T03:10:57;98169.22;;;7.31;61.43
54122;BME280;40029;58.708;50.190;2023-03-13T03:13:28;98171.97;;;7.28;62.45
54122;BME280;40029;58.708;50.190;2023-03-13T03:16:07;98159.53;;;7.34;61.40
54122;BME280;40029;58.708;50.190;2023-03-13T03:18:39;98165.34;;;7.39;61.63
54122;BME280;40029;58.708;50.190;2023-03-13T03:21:10;98103.72;;;7.11;60.97
54122;BME280;40029;58.708;50.190;2023-03-13T03:23:43;98170.13;;;7.30;61.55
54122;BME280;40029;58.708;50.190;2023-03-13T03:26:15;98155.81;;;7.22;61.98
54122;BME280;40029;58.708;50.190;2023-03-13T03:28:46;98167.69;;;7.44;62.00
54122;BME280;40029;58.708;50.190;2023-03-13T03:31:18;98157.84;;;7.33;62.48
54122;BME280;40029;58.708;50.190;2023-03-13T03:33:50;98149.69;;;7.41;61.99
54122;BME280;40029;58.708;50.190;2023-03-13T03:36:22;98166.66;;;7.46;61.28
54122;BME280;40029;58.708;50.190;2023-03-13T03:38:54;98123.44;;;7.31;61.21
54122;BME280;40029;58.708;50.190;2023-03-13T03:41:30;98144.91;;;7.16;62.17
54122;BME280;40029;58.708;50.190;2023-03-13T03:44:03;98150.94;;;7.16;62.38
54122;BME280;40029;58.708;50.190;2023-03-13T03:46:52;98102.66;;;6.98;62.98
54122;BME280;40029;58.708;50.190;2023-03-13T03:49:24;98139.34;;;7.41;61.33
54122;BME280;40029;58.708;50.190;2023-03-13T03:51:56;98152.81;;;7.30;61.26
54122;BME280;40029;58.708;50.190;2023-03-13T03:54:33;98145.69;;;7.18;61.51
54122;BME280;40029;58.708;50.190;2023-03-13T03:57:05;98122.53;;;6.97;61.28
54122;BME280;40029;58.708;50.190;2023-03-13T03:59:37;98137.34;;;7.46;61.98
54122;BME280;40029;58.708;50.190;2023-03-13T04:02:11;98144.97;;;7.49;60.95
54122;BME280;40029;58.708;50.190;2023-03-13T04:04:44;98115.50;;;6.99;61.85
54122;BME280;40029;58.708;50.190;2023-03-13T04:07:33;98164.56;;;7.37;61.00
54122;BME280;40029;58.708;50.190;2023-03-13T04:10:05;98153.69;;;7.31;61.17
54122;BME280;40029;58.708;50.190;2023-03-13T04:12:45;98126.41;;;7.23;60.65
54122;BME280;40029;58.708;50.190;2023-03-13T04:15:17;98169.03;;;7.34;60.53
54122;BME280;40029;58.708;50.190;2023-03-13T04:17:49;98167.38;;;7.15;60.78
54122;BME280;40029;58.708;50.190;2023-03-13T04:20:22;98127.25;;;7.07;61.14
54122;BME280;40029;58.708;50.190;2023-03-13T04:22:53;98170.44;;;7.23;61.13
54122;BME280;40029;58.708;50.190;2023-03-13T04:25:42;98142.69;;;7.08;61.36
54122;BME280;40029;58.708;50.190;2023-03-13T04:28:16;98170.34;;;7.42;60.64
54122;BME280;40029;58.708;50.190;2023-03-13T04:30:48;98120.63;;;7.01;59.12
54122;BME280;40029;58.708;50.190;2023-03-13T04:33:31;98162.28;;;7.31;60.48
54122;BME280;40029;58.708;50.190;2023-03-13T04:36:21;98160.13;;;7.22;59.97
54122;BME280;40029;58.708;50.190;2023-03-13T04:39:05;98149.13;;;7.18;60.17
54122;BME280;40029;58.708;50.190;2023-03-13T04:42:10;98179.88;;;7.42;59.88
54122;BME280;40029;58.708;50.190;2023-03-13T04:45:01;98173.94;;;7.22;59.95
54122;BME280;40029;58.708;50.190;2023-03-13T04:47:51;98146.13;;;6.91;61.42
54122;BME280;40029;58.708;50.190;2023-03-13T04:50:40;98148.47;;;6.79;63.26
54122;BME280;40029;58.708;50.190;2023-03-13T04:53:29;98155.25;;;6.81;63.31
54122;BME280;40029;58.708;50.190;2023-03-13T04:56:25;98177.88;;;6.95;61.81
54122;BME280;40029;58.708;50.190;2023-03-13T04:59:20;98181.41;;;6.94;62.14
54122;BME280;40029;58.708;50.190;2023-03-13T05:02:17;98192.78;;;6.72;60.77
54122;BME280;40029;58.708;50.190;2023-03-13T05:05:24;98204.44;;;6.81;59.47
54122;BME280;40029;58.708;50.190;2023-03-13T05:08:19;98162.56;;;6.54;58.96
54122;BME280;40029;58.708;50.190;2023-03-13T05:11:02;98139.53;;;6.67;58.31
54122;BME280;40029;58.708;50.190;2023-03-13T05:14:05;98217.53;;;7.14;58.13
54122;BME280;40029;58.708;50.190;2023-03-13T05:16:45;98180.47;;;6.95;58.38
54122;BME280;40029;58.708;50.190;2023-03-13T05:19:54;98166.34;;;6.66;59.47
54122;BME280;40029;58.708;50.190;2023-03-13T05:22:44;98213.75;;;7.03;59.29
54122;BME280;40029;58.708;50.190;2023-03-13T05:25:18;98164.78;;;6.81;58.81
54122;BME280;40029;58.708;50.190;2023-03-13T05:28:01;98171.75;;;6.79;58.77
54122;BME280;40029;58.708;50.190;2023-03-13T05:30:51;98177.41;;;6.87;58.94
54122;BME280;40029;58.708;50.190;2023-03-13T05:33:40;98213.88;;;6.82;58.68
54122;BME280;40029;58.708;50.190;2023-03-13T05:36:28;98205.16;;;6.66;58.81
54122;BME280;40029;58.708;50.190;2023-03-13T05:39:19;98242.03;;;6.52;58.20
54122;BME280;40029;58.708;50.190;2023-03-13T05:41:53;98222.88;;;6.18;57.36
54122;BME280;40029;58.708;50.190;2023-03-13T05:44:27;98221.53;;;6.10;57.63
54122;BME280;40029;58.708;50.190;2023-03-13T05:47:21;98189.28;;;5.59;56.88
54122;BME280;40029;58.708;50.190;2023-03-13T05:50:18;98222.91;;;5.77;56.77
54122;BME280;40029;58.708;50.190;2023-03-13T05:52:58;98194.44;;;5.38;56.74
54122;BME280;40029;58.708;50.190;2023-03-13T05:55:52;98242.19;;;5.70;57.97
54122;BME280;40029;58.708;50.190;2023-03-13T05:58:43;98239.72;;;5.67;57.42
54122;BME280;40029;58.708;50.190;2023-03-13T06:01:37;98251.09;;;5.63;58.02
54122;BME280;40029;58.708;50.190;2023-03-13T06:04:18;98259.31;;;5.53;58.04
54122;BME280;40029;58.708;50.190;2023-03-13T06:06:50;98176.97;;;5.24;57.74
54122;BME280;40029;58.708;50.190;2023-03-13T06:09:22;98253.34;;;5.50;58.41
54122;BME280;40029;58.708;50.190;2023-03-13T06:11:55;98198.72;;;5.19;57.82
54122;BME280;40029;58.708;50.190;2023-03-13T06:14:27;98202.00;;;5.02;58.61
54122;BME280;40029;58.708;50.190;2023-03-13T06:17:25;98244.69;;;5.51;58.60
54122;BME280;40029;58.708;50.190;2023-03-13T06:19:56;98227.47;;;5.32;58.78
54122;BME280;40029;58.708;50.190;2023-03-13T06:22:46;98271.00;;;5.61;57.95
54122;BME280;40029;58.708;50.190;2023-03-13T06:25:35;98231.09;;;5.26;58.67
54122;BME280;40029;58.708;50.190;2023-03-13T06:28:06;98274.66;;;5.35;58.20
54122;BME280;40029;58.708;50.190;2023-03-13T06:30:38;98250.84;;;5.07;58.63
54122;BME280;40029;58.708;50.190;2023-03-13T06:33:09;98279.63;;;5.40;58.94
54122;BME280;40029;58.708;50.190;2023-03-13T06:35:42;98295.63;;;5.28;58.39
54122;BME280;40029;58.708;50.190;2023-03-13T06:38:13;98294.25;;;5.19;58.66
54122;BME280;40029;58.708;50.190;2023-03-13T06:40:44;98275.63;;;5.11;57.75
54122;BME280;40029;58.708;50.190;2023-03-13T06:43:15;98266.72;;;4.97;57.51
54122;BME280;40029;58.708;50.190;2023-03-13T06:45:46;98287.88;;;5.28;57.51
54122;BME280;40029;58.708;50.190;2023-03-13T06:48:18;98297.13;;;5.11;56.74
54122;BME280;40029;58.708;50.190;2023-03-13T06:51:12;98251.09;;;4.79;57.74
54122;BME280;40029;58.708;50.190;2023-03-13T06:53:44;98284.91;;;4.71;56.40
54122;BME280;40029;58.708;50.190;2023-03-13T06:56:16;98253.19;;;4.69;57.64
54122;BME280;40029;58.708;50.190;2023-03-13T06:58:48;98284.31;;;4.64;57.00
54122;BME280;40029;58.708;50.190;2023-03-13T07:01:19;98294.22;;;4.75;57.36
54122;BME280;40029;58.708;50.190;2023-03-13T07:03:50;98300.44;;;4.47;57.12
54122;BME280;40029;58.708;50.190;2023-03-13T07:06:22;98295.00;;;4.55;57.77
54122;BME280;40029;58.708;50.190;2023-03-13T07:09:12;98264.72;;;4.13;58.66
54122;BME280;40029;58.708;50.190;2023-03-13T07:11:43;98219.34;;;4.09;59.06
54122;BME280;40029;58.708;50.190;2023-03-13T07:14:14;98285.16;;;4.41;58.56
54122;BME280;40029;58.708;50.190;2023-03-13T07:16:45;98266.22;;;4.42;59.05
54122;BME280;40029;58.708;50.190;2023-03-13T07:19:16;98274.91;;;4.40;59.10
54122;BME280;40029;58.708;50.190;2023-03-13T07:21:48;98249.31;;;4.35;58.83
54122;BME280;40029;58.708;50.190;2023-03-13T07:24:19;98254.72;;;4.51;59.00
54122;BME280;40029;58.708;50.190;2023-03-13T07:27:09;98255.69;;;4.70;58.71
54122;BME280;40029;58.708;50.190;2023-03-13T07:29:40;98285.44;;;4.81;57.50
54122;BME280;40029;58.708;50.190;2023-03-13T07:32:11;98299.81;;;4.86;57.71
54122;BME280;40029;58.708;50.190;2023-03-13T07:34:42;98315.13;;;4.91;57.69
54122;BME280;40029;58.708;50.190;2023-03-13T07:37:16;98285.72;;;4.49;56.91
54122;BME280;40029;58.708;50.190;2023-03-13T07:39:47;98309.47;;;4.81;57.41
54122;BME280;40029;58.708;50.190;2023-03-13T07:42:18;98273.44;;;4.33;55.76
54122;BME280;40029;58.708;50.190;2023-03-13T07:44:49;98322.03;;;4.67;56.37
54122;BME280;40029;58.708;50.190;2023-03-13T07:47:21;98326.50;;;4.63;56.96
54122;BME280;40029;58.708;50.190;2023-03-13T07:49:51;98283.38;;;4.43;57.61
54122;BME280;40029;58.708;50.190;2023-03-13T07:52:23;98319.63;;;4.86;57.31
54122;BME280;40029;58.708;50.190;2023-03-13T07:54:56;98317.34;;;5.00;56.40
54122;BME280;40029;58.708;50.190;2023-03-13T07:57:27;98290.38;;;4.63;53.88
54122;BME280;40029;58.708;50.190;2023-03-13T07:59:58;98326.09;;;4.96;54.40
54122;BME280;40029;58.708;50.190;2023-03-13T08:02:29;98326.41;;;4.88;52.48
54122;BME280;40029;58.708;50.190;2023-03-13T08:05:00;98305.50;;;4.49;52.69
54122;BME280;40029;58.708;50.190;2023-03-13T08:07:31;98292.06;;;4.41;52.39
54122;BME280;40029;58.708;50.190;2023-03-13T08:10:20;98350.03;;;4.78;53.69
54122;BME280;40029;58.708;50.190;2023-03-13T08:12:51;98347.81;;;4.68;52.98
54122;BME280;40029;58.708;50.190;2023-03-13T08:15:22;98365.31;;;4.60;54.17
54122;BME280;40029;58.708;50.190;2023-03-13T08:17:56;98325.91;;;4.32;54.18
54122;BME280;40029;58.708;50.190;2023-03-13T08:20:27;98333.66;;;4.07;53.74
54122;BME280;40029;58.708;50.190;2023-03-13T08:22:58;98360.50;;;4.26;54.54
54122;BME280;40029;58.708;50.190;2023-03-13T08:25:29;98327.78;;;4.03;54.09
54122;BME280;40029;58.708;50.190;2023-03-13T08:28:01;98335.56;;;4.01;53.98
54122;BME280;40029;58.708;50.190;2023-03-13T08:30:33;98344.81;;;4.07;54.41
54122;BME280;40029;58.708;50.190;2023-03-13T08:33:04;98366.25;;;4.09;53.26
54122;BME280;40029;58.708;50.190;2023-03-13T08:35:35;98390.19;;;4.13;53.88
54122;BME280;40029;58.708;50.190;2023-03-13T08:38:25;98354.00;;;3.91;53.59
54122;BME280;40029;58.708;50.190;2023-03-13T08:40:56;98383.28;;;4.13;54.36
54122;BME280;40029;58.708;50.190;2023-03-13T08:43:27;98411.22;;;4.25;54.17
54122;BME280;40029;58.708;50.190;2023-03-13T08:45:58;98375.03;;;4.04;53.53
54122;BME280;40029;58.708;50.190;2023-03-13T08:48:30;98380.28;;;4.00;52.64
54122;BME280;40029;58.708;50.190;2023-03-13T08:51:03;98383.31;;;4.12;52.34
54122;BME280;40029;58.708;50.190;2023-03-13T08:53:36;98418.84;;;4.29;53.03
54122;BME280;40029;58.708;50.190;2023-03-13T08:56:13;98429.78;;;4.35;51.55
54122;BME280;40029;58.708;50.190;2023-03-13T08:58:49;98392.84;;;4.35;52.29
54122;BME280;40029;58.708;50.190;2023-03-13T09:01:22;98382.88;;;4.25;50.34
54122;BME280;40029;58.708;50.190;2023-03-13T09:03:53;98383.88;;;4.45;50.37
54122;BME280;40029;58.708;50.190;2023-03-13T09:06:25;98396.34;;;4.57;49.23
54122;BME280;40029;58.708;50.190;2023-03-13T09:09:14;98345.66;;;4.56;49.28
54122;BME280;40029;58.708;50.190;2023-03-13T09:11:45;98432.19;;;4.88;46.77
54122;BME280;40029;58.708;50.190;2023-03-13T09:14:16;98409.44;;;4.76;46.05
54122;BME280;40029;58.708;50.190;2023-03-13T09:16:47;98384.34;;;4.56;45.16
54122;BME280;40029;58.708;50.190;2023-03-13T09:19:38;98436.31;;;4.94;45.16
54122;BME280;40029;58.708;50.190;2023-03-13T09:22:09;98429.03;;;4.82;44.04
54122;BME280;40029;58.708;50.190;2023-03-13T09:24:40;98439.84;;;4.68;43.15
54122;BME280;40029;58.708;50.190;2023-03-13T09:27:12;98455.72;;;4.81;43.32
54122;BME280;40029;58.708;50.190;2023-03-13T09:29:43;98465.16;;;5.05;43.48
54122;BME280;40029;58.708;50.190;2023-03-13T09:32:14;98423.94;;;4.80;43.31
54122;BME280;40029;58.708;50.190;2023-03-13T09:34:45;98473.03;;;5.02;42.00
54122;BME280;40029;58.708;50.190;2023-03-13T09:37:17;98472.13;;;5.03;41.86
54122;BME280;40029;58.708;50.190;2023-03-13T09:39:48;98427.28;;;4.82;42.87
54122;BME280;40029;58.708;50.190;2023-03-13T09:42:49;98468.53;;;5.07;40.30
54122;BME280;40029;58.708;50.190;2023-03-13T09:48:07;98464.84;;;5.14;41.50
54122;BME280;40029;58.708;50.190;2023-03-13T09:50:46;98453.78;;;5.11;42.59
54122;BME280;40029;58.708;50.190;2023-03-13T09:53:52;98459.94;;;5.07;38.95
54122;BME280;40029;58.708;50.190;2023-03-13T09:56:34;98470.44;;;5.02;40.67
54122;BME280;40029;58.708;50.190;2023-03-13T09:59:12;98520.38;;;5.24;41.25
54122;BME280;40029;58.708;50.190;2023-03-13T10:01:48;98517.25;;;5.16;40.22
54122;BME280;40029;58.708;50.190;2023-03-13T10:04:41;98506.03;;;4.92;38.01
54122;BME280;40029;58.708;50.190;2023-03-13T10:07:14;98482.63;;;4.73;41.27
54122;BME280;40029;58.708;50.190;2023-03-13T10:09:45;98528.00;;;5.04;41.42
54122;BME280;40029;58.708;50.190;2023-03-13T10:12:23;98447.50;;;4.69;38.99
54122;BME280;40029;58.708;50.190;2023-03-13T10:17:39;98499.38;;;4.62;39.83
54122;BME280;40029;58.708;50.190;2023-03-13T10:20:25;98481.22;;;4.40;36.43
54122;BME280;40029;58.708;50.190;2023-03-13T10:23:04;98491.75;;;4.34;35.46
54122;BME280;40029;58.708;50.190;2023-03-13T10:25:38;98538.50;;;4.74;40.02
54122;BME280;40029;58.708;50.190;2023-03-13T10:28:11;98556.75;;;4.43;39.03
54122;BME280;40029;58.708;50.190;2023-03-13T10:30:48;98511.66;;;4.29;37.76
54122;BME280;40029;58.708;50.190;2023-03-13T10:33:24;98562.06;;;4.39;37.56
54122;BME280;40029;58.708;50.190;2023-03-13T10:36:11;98593.38;;;4.26;35.46
54122;BME280;40029;58.708;50.190;2023-03-13T10:38:52;98576.97;;;4.01;36.06
54122;BME280;40029;58.708;50.190;2023-03-13T10:41:32;98574.53;;;4.24;38.68
54122;BME280;40029;58.708;50.190;2023-03-13T10:44:15;98590.09;;;4.21;35.49
54122;BME280;40029;58.708;50.190;2023-03-13T10:46:48;98600.41;;;4.21;36.84
54122;BME280;40029;58.708;50.190;2023-03-13T10:49:22;98580.66;;;4.20;38.18
54122;BME280;40029;58.708;50.190;2023-03-13T10:51:58;98607.47;;;4.43;37.77
54122;BME280;40029;58.708;50.190;2023-03-13T10:54:32;98564.88;;;4.31;36.76
54122;BME280;40029;58.708;50.190;2023-03-13T10:59:50;98571.53;;;4.10;36.05
54122;BME280;40029;58.708;50.190;2023-03-13T11:02:26;98568.63;;;4.21;35.08
54122;BME280;40029;58.708;50.190;2023-03-13T11:04:58;98625.03;;;4.58;37.79
54122;BME280;40029;58.708;50.190;2023-03-13T11:07:33;98633.91;;;4.49;36.84
54122;BME280;40029;58.708;50.190;2023-03-13T11:10:31;98636.59;;;4.46;33.73
54122;BME280;40029;58.708;50.190;2023-03-13T11:13:28;98655.00;;;4.62;31.89
54122;BME280;40029;58.708;50.190;2023-03-13T11:16:21;98609.53;;;4.32;34.07
54122;BME280;40029;58.708;50.190;2023-03-13T11:22:39;98663.25;;;4.45;32.60
54122;BME280;40029;58.708;50.190;2023-03-13T11:25:29;98669.09;;;4.52;36.96
54122;BME280;40029;58.708;50.190;2023-03-13T11:33:51;98685.06;;;4.35;31.41
54122;BME280;40029;58.708;50.190;2023-03-13T11:45:07;98701.75;;;4.80;28.38
54122;BME280;40029;58.708;50.190;2023-03-13T11:53:40;98714.50;;;4.28;27.33
54122;BME280;40029;58.708;50.190;2023-03-13T11:56:48;98720.63;;;4.24;27.55
54122;BME280;40029;58.708;50.190;2023-03-13T11:59:34;98726.78;;;4.20;25.11
54122;BME280;40029;58.708;50.190;2023-03-13T12:02:34;98711.00;;;4.59;28.67
54122;BME280;40029;58.708;50.190;2023-03-13T12:05:09;98673.94;;;4.05;27.73
54122;BME280;40029;58.708;50.190;2023-03-13T12:07:53;98720.13;;;4.41;28.77
54122;BME280;40029;58.708;50.190;2023-03-13T12:10:49;98734.34;;;4.54;26.88
54122;BME280;40029;58.708;50.190;2023-03-13T12:13:37;98662.94;;;4.00;28.31
54122;BME280;40029;58.708;50.190;2023-03-13T12:16:11;98741.94;;;4.60;26.13
54122;BME280;40029;58.708;50.190;2023-03-13T12:18:45;98718.88;;;4.54;30.56
54122;BME280;40029;58.708;50.190;2023-03-13T12:21:24;98751.13;;;4.69;27.07
54122;BME280;40029;58.708;50.190;2023-03-13T12:24:28;98753.03;;;5.18;22.39
54122;BME280;40029;58.708;50.190;2023-03-13T12:27:24;98703.31;;;4.57;24.49
54122;BME280;40029;58.708;50.190;2023-03-13T12:30:10;98708.56;;;4.26;26.11
54122;BME280;40029;58.708;50.190;2023-03-13T12:35:50;98771.94;;;4.04;26.79
54122;BME280;40029;58.708;50.190;2023-03-13T12:39:14;98774.91;;;3.88;24.75
54122;BME280;40029;58.708;50.190;2023-03-13T12:42:00;98727.63;;;3.58;26.07
54122;BME280;40029;58.708;50.190;2023-03-13T12:44:38;98792.81;;;3.93;25.77
54122;BME280;40029;58.708;50.190;2023-03-13T13:01:20;98813.47;;;2.47;33.19
54122;BME280;40029;58.708;50.190;2023-03-13T13:04:10;98852.28;;;2.75;32.97
54122;BME280;40029;58.708;50.190;2023-03-13T13:07:17;98851.44;;;2.74;33.61
54122;BME280;40029;58.708;50.190;2023-03-13T13:10:17;98859.88;;;2.81;34.53
54122;BME280;40029;58.708;50.190;2023-03-13T13:15:48;98814.59;;;2.34;32.23
54122;BME280;40029;58.708;50.190;2023-03-13T13:18:33;98849.16;;;2.61;31.75
54122;BME280;40029;58.708;50.190;2023-03-13T13:23:38;98889.03;;;2.82;31.91
54122;BME280;40029;58.708;50.190;2023-03-13T13:26:46;98871.31;;;2.68;29.67
54122;BME280;40029;58.708;50.190;2023-03-13T13:39:48;98904.06;;;3.76;25.89
54122;BME280;40029;58.708;50.190;2023-03-13T13:45:48;98928.66;;;3.15;24.27
54122;BME280;40029;58.708;50.190;2023-03-13T13:48:22;98934.16;;;2.53;23.61
54122;BME280;40029;58.708;50.190;2023-03-13T13:56:53;98907.66;;;2.03;24.32
54122;BME280;40029;58.708;50.190;2023-03-13T13:59:28;98971.59;;;2.20;25.69
54122;BME280;40029;58.708;50.190;2023-03-13T14:05:13;98978.19;;;2.36;24.36
54122;BME280;40029;58.708;50.190;2023-03-13T14:08:03;98988.19;;;2.50;25.30
54122;BME280;40029;58.708;50.190;2023-03-13T14:10:39;98987.41;;;2.48;26.67
54122;BME280;40029;58.708;50.190;2023-03-13T14:13:13;98977.81;;;2.07;25.45
54122;BME280;40029;58.708;50.190;2023-03-13T14:15:49;98951.59;;;1.86;26.18
54122;BME280;40029;58.708;50.190;2023-03-13T14:18:24;99012.31;;;1.92;25.44
54122;BME280;40029;58.708;50.190;2023-03-13T14:21:01;98966.72;;;1.49;26.10
54122;BME280;40029;58.708;50.190;2023-03-13T14:23:38;98979.28;;;1.67;26.43
54122;BME280;40029;58.708;50.190;2023-03-13T14:26:30;99033.09;;;1.77;26.24
54122;BME280;40029;58.708;50.190;2023-03-13T14:29:03;98977.97;;;1.39;25.95
54122;BME280;40029;58.708;50.190;2023-03-13T14:31:38;99040.88;;;1.69;25.16
54122;BME280;40029;58.708;50.190;2023-03-13T14:34:11;99033.19;;;1.69;26.62
54122;BME280;40029;58.708;50.190;2023-03-13T14:36:53;98995.81;;;1.48;25.85
54122;BME280;40029;58.708;50.190;2023-03-13T14:42:09;99015.72;;;1.32;26.23
54122;BME280;40029;58.708;50.190;2023-03-13T14:44:43;99015.66;;;1.37;27.28
54122;BME280;40029;58.708;50.190;2023-03-13T14:47:26;99073.94;;;1.29;24.68
54122;BME280;40029;58.708;50.190;2023-03-13T14:50:02;99033.19;;;1.03;26.20
54122;BME280;40029;58.708;50.190;2023-03-13T14:52:35;99083.41;;;1.23;26.84
54122;BME280;40029;58.708;50.190;2023-03-13T14:55:30;99094.50;;;1.24;24.17
54122;BME280;40029;58.708;50.190;2023-03-13T15:00:50;99088.44;;;1.31;27.16
54122;BME280;40029;58.708;50.190;2023-03-13T15:03:26;99080.78;;;1.28;27.31
54122;BME280;40029;58.708;50.190;2023-03-13T15:08:46;99107.28;;;1.29;27.75
54122;BME280;40029;58.708;50.190;2023-03-13T15:11:28;99066.47;;;1.06;27.02
54122;BME280;40029;58.708;50.190;2023-03-13T15:14:00;99121.03;;;1.24;28.33
54122;BME280;40029;58.708;50.190;2023-03-13T15:16:31;99083.63;;;1.00;28.15
54122;BME280;40029;58.708;50.190;2023-03-13T15:19:02;99082.94;;;0.86;27.73
54122;BME280;40029;58.708;50.190;2023-03-13T15:21:34;99070.22;;;0.75;28.02
54122;BME280;40029;58.708;50.190;2023-03-13T15:24:14;99151.09;;;1.10;27.46
54122;BME280;40029;58.708;50.190;2023-03-13T15:26:45;99092.44;;;0.75;27.97
54122;BME280;40029;58.708;50.190;2023-03-13T15:29:34;99148.66;;;0.96;27.77
54122;BME280;40029;58.708;50.190;2023-03-13T15:32:30;99136.78;;;0.89;27.57
54122;BME280;40029;58.708;50.190;2023-03-13T15:35:00;99145.34;;;0.85;28.06